Time;durP1;ratioP1;P1;durP2;ratioP2;P2;SDS_P1;SDS_P2;PMS_P1;PMS_P2;Temp;Humidity;BMP_temperature;BMP_pressure;BME280_temperature;BME280_humidity;BME280_pressure;Samples;Min_cycle;Max_cycle;Signal;HPM_P1;HPM_P2
2023/12/06 00:00:52;;;;;;;0.60;0.50;;;16.90;47.50;;;;;;5126296;27;45236;-63
2023/12/06 00:03:19;;;;;;;0.70;0.70;;;16.90;47.50;;;;;;5126445;27;45267;-63
2023/12/06 00:05:45;;;;;;;0.57;0.57;;;16.80;47.40;;;;;;5126305;27;45372;-64
2023/12/06 00:08:12;;;;;;;0.60;0.60;;;16.80;47.50;;;;;;5126040;27;46374;-63
2023/12/06 00:10:40;;;;;;;1.60;0.80;;;16.80;47.50;;;;;;5126221;27;45388;-63
2023/12/06 00:13:07;;;;;;;1.25;0.80;;;16.70;47.50;;;;;;5126349;27;45310;-62
2023/12/06 00:15:34;;;;;;;1.52;0.75;;;16.70;47.60;;;;;;5126247;27;45385;-63
2023/12/06 00:18:04;;;;;;;0.60;0.60;;;16.70;47.60;;;;;;5126069;27;45532;-63
2023/12/06 00:20:31;;;;;;;0.88;0.80;;;16.70;47.60;;;;;;5125968;27;45132;-63
2023/12/06 00:22:57;;;;;;;1.60;0.80;;;16.70;47.70;;;;;;5128876;27;45220;-63
2023/12/06 00:25:24;;;;;;;0.60;0.57;;;16.60;47.60;;;;;;5129633;27;45434;-63
2023/12/06 00:27:52;;;;;;;0.82;0.60;;;16.60;47.60;;;;;;5129295;27;45368;-63
2023/12/06 00:30:19;;;;;;;1.30;0.75;;;16.60;47.70;;;;;;5129619;27;45506;-63
2023/12/06 00:32:46;;;;;;;0.43;0.43;;;16.60;48.20;;;;;;5129606;27;45276;-63
2023/12/06 00:35:13;;;;;;;0.90;0.68;;;16.60;47.60;;;;;;5129448;27;45310;-63
2023/12/06 00:37:40;;;;;;;0.88;0.65;;;16.60;47.60;;;;;;5129202;27;47297;-64
2023/12/06 00:40:08;;;;;;;0.95;0.60;;;16.60;47.60;;;;;;5120625;27;45442;-63
2023/12/06 00:42:34;;;;;;;0.88;0.73;;;16.50;47.60;;;;;;5108791;27;45444;-63
2023/12/06 00:45:06;;;;;;;0.88;0.60;;;16.50;47.70;;;;;;5108772;27;45247;-63
2023/12/06 00:47:33;;;;;;;0.65;0.60;;;16.50;47.70;;;;;;5123282;27;46462;-63
2023/12/06 00:50:00;;;;;;;0.70;0.68;;;16.50;47.70;;;;;;5129115;27;45364;-64
2023/12/06 00:52:27;;;;;;;1.02;0.80;;;16.40;47.70;;;;;;5129208;27;45186;-63
2023/12/06 00:54:53;;;;;;;0.82;0.82;;;16.40;47.70;;;;;;5129216;27;45567;-63
2023/12/06 00:57:20;;;;;;;0.80;0.73;;;16.40;47.70;;;;;;5128411;27;47366;-63
2023/12/06 00:59:47;;;;;;;0.95;0.65;;;16.40;47.70;;;;;;5129004;27;45328;-63
2023/12/06 01:02:15;;;;;;;1.42;0.60;;;16.30;47.70;;;;;;5129056;27;45341;-63
2023/12/06 01:04:42;;;;;;;0.40;0.40;;;16.30;47.80;;;;;;5129152;27;45360;-63
2023/12/06 01:07:09;;;;;;;1.35;0.70;;;16.30;47.80;;;;;;5128494;27;45555;-63
2023/12/06 01:09:36;;;;;;;0.60;0.60;;;16.30;47.80;;;;;;5128724;27;45259;-63
2023/12/06 01:12:03;;;;;;;0.85;0.70;;;16.30;47.90;;;;;;5128537;27;45402;-63
2023/12/06 01:14:30;;;;;;;0.30;0.30;;;16.20;47.80;;;;;;5128749;27;45422;-63
2023/12/06 01:16:57;;;;;;;0.73;0.52;;;16.20;47.80;;;;;;5128431;27;47011;-63
2023/12/06 01:19:25;;;;;;;0.63;0.60;;;16.20;47.80;;;;;;5128651;27;45314;-63
2023/12/06 01:21:52;;;;;;;0.98;0.68;;;16.20;47.90;;;;;;5128752;27;45461;-63
2023/12/06 01:24:19;;;;;;;0.50;0.50;;;16.20;47.90;;;;;;5128785;27;45525;-63
2023/12/06 01:26:46;;;;;;;1.20;1.10;;;16.10;48.50;;;;;;5128337;27;46643;-63
2023/12/06 01:29:13;;;;;;;1.00;0.70;;;16.10;48.00;;;;;;5128355;27;45383;-63
2023/12/06 01:31:39;;;;;;;0.50;0.50;;;16.10;47.80;;;;;;5128534;27;45293;-63
2023/12/06 01:34:07;;;;;;;0.52;0.35;;;16.10;47.90;;;;;;5128479;27;45402;-63
2023/12/06 01:36:35;;;;;;;1.23;0.50;;;16.10;47.90;;;;;;5128139;27;46582;-63
2023/12/06 01:39:03;;;;;;;1.38;0.60;;;16.10;47.90;;;;;;5128270;27;45337;-63
2023/12/06 01:41:30;;;;;;;0.82;0.50;;;16.10;47.90;;;;;;5107922;27;45325;-63
2023/12/06 01:43:56;;;;;;;0.95;0.50;;;16.00;47.80;;;;;;5107881;27;45387;-63
2023/12/06 01:46:24;;;;;;;0.70;0.70;;;16.00;47.90;;;;;;5112418;27;45374;-63
2023/12/06 01:48:51;;;;;;;0.70;0.50;;;16.00;47.90;;;;;;5127993;27;45397;-63
2023/12/06 01:51:18;;;;;;;0.43;0.40;;;16.00;47.90;;;;;;5128293;27;45393;-63
2023/12/06 01:53:48;;;;;;;0.40;0.40;;;16.00;47.90;;;;;;5128429;27;45406;-64
2023/12/06 01:56:15;;;;;;;0.88;0.70;;;16.00;48.50;;;;;;5127797;27;46834;-63
2023/12/06 01:58:42;;;;;;;0.50;0.50;;;16.00;48.00;;;;;;5127770;27;45356;-63
2023/12/06 02:01:09;;;;;;;0.50;0.50;;;16.00;48.00;;;;;;5128143;27;45313;-63
2023/12/06 02:03:36;;;;;;;1.05;0.50;;;15.90;47.90;;;;;;5128058;27;45244;-63
2023/12/06 02:06:03;;;;;;;0.60;0.57;;;15.90;48.00;;;;;;5128052;27;46293;-63
2023/12/06 02:08:30;;;;;;;0.70;0.70;;;15.90;48.00;;;;;;5127735;27;45376;-63
2023/12/06 02:10:58;;;;;;;0.95;0.57;;;15.90;48.00;;;;;;5127846;27;45432;-63
2023/12/06 02:13:25;;;;;;;0.43;0.43;;;15.90;48.60;;;;;;5127974;27;45231;-63
2023/12/06 02:15:52;;;;;;;0.50;0.50;;;15.80;48.00;;;;;;5127541;27;45330;-63
2023/12/06 02:18:18;;;;;;;0.38;0.38;;;15.80;48.00;;;;;;5127660;27;45419;-63
2023/12/06 02:20:45;;;;;;;1.30;0.70;;;15.80;47.90;;;;;;5127735;27;45548;-63
2023/12/06 02:23:12;;;;;;;0.43;0.35;;;15.80;48.00;;;;;;5127792;27;45434;-63
2023/12/06 02:25:42;;;;;;;0.70;0.70;;;15.80;48.00;;;;;;5127319;27;47327;-64
2023/12/06 02:28:08;;;;;;;0.45;0.45;;;15.80;48.00;;;;;;5127513;27;45368;-63
2023/12/06 02:30:35;;;;;;;3.03;0.60;;;15.80;48.00;;;;;;5127725;27;45291;-63
2023/12/06 02:33:02;;;;;;;0.70;0.70;;;15.70;48.00;;;;;;5127845;27;45358;-63
2023/12/06 02:35:31;;;;;;;0.50;0.50;;;15.70;48.10;;;;;;5127263;27;45441;-63
2023/12/06 02:37:58;;;;;;;0.57;0.57;;;15.70;48.00;;;;;;5127485;27;45373;-63
2023/12/06 02:40:26;;;;;;;4.07;1.95;;;15.70;48.10;;;;;;5116304;27;45311;-64
2023/12/06 02:42:54;;;;;;;0.50;0.50;;;15.70;48.10;;;;;;5106941;27;45306;-63
2023/12/06 02:45:21;;;;;;;1.52;0.60;;;15.60;48.00;;;;;;5105769;27;46369;-63
2023/12/06 02:47:47;;;;;;;0.88;0.70;;;15.60;48.00;;;;;;5123715;27;45319;-64
2023/12/06 02:50:14;;;;;;;0.50;0.50;;;15.60;48.00;;;;;;5127273;27;45381;-63
2023/12/06 02:52:41;;;;;;;0.80;0.68;;;15.60;48.10;;;;;;5127460;27;45448;-63
2023/12/06 02:55:08;;;;;;;1.40;0.45;;;15.60;48.10;;;;;;5127136;27;45367;-63
2023/12/06 02:57:35;;;;;;;0.45;0.45;;;15.60;48.10;;;;;;5126867;27;45275;-63
2023/12/06 03:00:04;;;;;;;2.55;0.70;;;15.60;48.00;;;;;;5127153;27;45267;-64
2023/12/06 03:02:31;;;;;;;0.85;0.60;;;15.60;48.00;;;;;;5127237;27;45566;-64
2023/12/06 03:04:58;;;;;;;1.00;0.63;;;15.50;48.10;;;;;;5126975;27;46307;-63
2023/12/06 03:07:25;;;;;;;1.38;0.70;;;15.50;48.10;;;;;;5126894;27;45168;-64
2023/12/06 03:09:52;;;;;;;0.63;0.63;;;15.50;48.20;;;;;;5127445;27;45309;-63
2023/12/06 03:12:18;;;;;;;0.47;0.47;;;15.50;48.10;;;;;;5127305;27;45352;-63
2023/12/06 03:14:45;;;;;;;0.82;0.45;;;15.50;48.10;;;;;;5126852;27;46327;-63
2023/12/06 03:17:13;;;;;;;1.20;0.52;;;15.50;48.10;;;;;;5126737;27;45330;-63
2023/12/06 03:19:40;;;;;;;1.10;0.60;;;15.50;48.10;;;;;;5126931;27;45276;-63
2023/12/06 03:22:07;;;;;;;0.60;0.60;;;15.50;48.10;;;;;;5127140;27;45318;-64
2023/12/06 03:24:34;;;;;;;0.60;0.60;;;15.50;48.10;;;;;;5126545;27;46648;-64
2023/12/06 03:27:01;;;;;;;2.05;0.80;;;15.50;48.70;;;;;;5126598;27;45334;-63
2023/12/06 03:29:27;;;;;;;0.70;0.70;;;15.50;48.10;;;;;;5126878;27;45422;-63
2023/12/06 03:31:54;;;;;;;2.20;0.60;;;15.40;48.70;;;;;;5127093;27;45347;-63
2023/12/06 03:34:22;;;;;;;0.63;0.45;;;15.40;48.10;;;;;;5126547;27;46474;-63
2023/12/06 03:36:49;;;;;;;0.50;0.50;;;15.40;48.20;;;;;;5126529;27;45322;-63
2023/12/06 03:39:17;;;;;;;0.80;0.80;;;15.40;48.70;;;;;;5125263;27;45287;-63
2023/12/06 03:41:43;;;;;;;0.75;0.68;;;15.40;48.10;;;;;;5106121;27;45556;-63
2023/12/06 03:44:10;;;;;;;0.63;0.52;;;15.40;48.20;;;;;;5105755;27;45201;-63
2023/12/06 03:46:37;;;;;;;0.93;0.60;;;15.40;48.20;;;;;;5110189;27;45244;-63
2023/12/06 03:49:04;;;;;;;0.77;0.57;;;15.40;48.20;;;;;;5126535;27;45334;-63
2023/12/06 03:51:32;;;;;;;0.63;0.60;;;15.40;48.20;;;;;;5126664;27;45360;-63
2023/12/06 03:53:59;;;;;;;0.60;0.60;;;15.40;48.10;;;;;;5126251;27;45527;-63
2023/12/06 03:56:26;;;;;;;1.35;0.65;;;15.40;48.20;;;;;;5126443;27;45259;-63
2023/12/06 03:58:53;;;;;;;1.30;0.77;;;15.30;48.10;;;;;;5130093;27;45201;-63
2023/12/06 04:01:20;;;;;;;1.02;0.68;;;15.30;48.10;;;;;;5130176;27;45391;-63
2023/12/06 04:03:47;;;;;;;1.08;0.60;;;15.30;48.10;;;;;;5129754;27;45438;-63
2023/12/06 04:06:14;;;;;;;0.80;0.68;;;15.30;48.20;;;;;;5129724;27;45291;-63
2023/12/06 04:08:42;;;;;;;0.50;0.50;;;15.30;48.30;;;;;;5129884;27;45134;-63
2023/12/06 04:11:09;;;;;;;0.57;0.57;;;15.30;48.30;;;;;;5130123;27;45339;-64
2023/12/06 04:13:36;;;;;;;0.85;0.60;;;15.40;48.20;;;;;;5129555;27;46383;-63
2023/12/06 04:16:04;;;;;;;0.57;0.57;;;15.40;48.10;;;;;;5129617;27;45364;-63
2023/12/06 04:18:31;;;;;;;0.60;0.60;;;15.50;47.80;;;;;;5129756;27;45250;-63
2023/12/06 04:20:58;;;;;;;0.60;0.60;;;15.60;47.70;;;;;;5129970;27;45435;-63
2023/12/06 04:23:24;;;;;;;0.60;0.60;;;15.70;47.50;;;;;;5129405;27;46738;-64
2023/12/06 04:25:53;;;;;;;0.65;0.50;;;15.70;47.30;;;;;;5129335;27;45380;-64
2023/12/06 04:28:21;;;;;;;0.73;0.50;;;15.90;47.10;;;;;;5129563;27;45268;-63
2023/12/06 04:30:48;;;;;;;0.57;0.57;;;16.00;46.90;;;;;;5129682;27;45243;-63
2023/12/06 04:33:15;;;;;;;2.15;0.57;;;16.10;46.60;;;;;;5129339;27;46385;-64
2023/12/06 04:35:42;;;;;;;0.30;0.30;;;16.20;46.40;;;;;;5128906;27;45449;-64
2023/12/06 04:38:09;;;;;;;0.95;0.63;;;16.30;46.20;;;;;;5129558;27;45393;-64
2023/12/06 04:40:36;;;;;;;2.20;0.70;;;16.40;45.90;;;;;;5129515;27;45228;-64
2023/12/06 04:43:04;;;;;;;1.50;0.50;;;16.50;45.70;;;;;;5126517;27;45200;-64
2023/12/06 04:45:32;;;;;;;0.73;0.47;;;16.60;45.50;;;;;;5129190;27;45418;-64
2023/12/06 04:47:59;;;;;;;0.60;0.52;;;16.70;45.40;;;;;;5110329;27;45367;-64
2023/12/06 04:50:26;;;;;;;0.50;0.50;;;16.80;45.20;;;;;;5108595;27;45221;-64
2023/12/06 04:52:53;;;;;;;0.55;0.55;;;16.90;45.00;;;;;;5108458;27;46404;-64
2023/12/06 04:55:20;;;;;;;1.13;0.52;;;16.90;44.90;;;;;;5108311;27;45377;-64
2023/12/06 04:57:46;;;;;;;0.52;0.43;;;17.00;44.80;;;;;;5108206;27;45324;-64
2023/12/06 05:00:17;;;;;;;1.00;0.40;;;17.00;44.60;;;;;;5108525;27;45316;-64
2023/12/06 05:02:44;;;;;;;0.30;0.30;;;17.10;44.50;;;;;;5108467;27;45187;-64
2023/12/06 05:05:10;;;;;;;1.58;0.40;;;17.20;44.40;;;;;;5108098;27;45430;-64
2023/12/06 05:07:37;;;;;;;0.40;0.40;;;17.20;44.30;;;;;;5107911;27;45401;-64
2023/12/06 05:10:05;;;;;;;0.98;0.50;;;17.30;44.30;;;;;;5108386;27;45435;-64
2023/12/06 05:12:32;;;;;;;0.95;0.38;;;17.30;44.10;;;;;;5108051;27;45332;-64
2023/12/06 05:14:59;;;;;;;0.75;0.60;;;17.30;44.00;;;;;;5108090;27;45306;-64
2023/12/06 05:17:27;;;;;;;0.47;0.40;;;17.40;44.00;;;;;;5108053;27;45454;-64
2023/12/06 05:19:54;;;;;;;0.52;0.52;;;17.40;44.00;;;;;;5108326;27;45278;-64
2023/12/06 05:22:20;;;;;;;1.13;0.52;;;17.40;43.90;;;;;;5107924;27;46688;-64
2023/12/06 05:24:47;;;;;;;0.80;0.80;;;17.40;43.80;;;;;;5107917;27;45280;-64
2023/12/06 05:27:14;;;;;;;1.02;0.45;;;17.50;43.80;;;;;;5105402;27;45345;-64
2023/12/06 05:29:41;;;;;;;0.40;0.40;;;17.50;43.80;;;;;;5108100;27;45424;-64
2023/12/06 05:32:08;;;;;;;0.77;0.40;;;17.50;43.70;;;;;;5107796;27;45382;-64
2023/12/06 05:34:36;;;;;;;0.43;0.43;;;17.50;43.60;;;;;;5107886;27;45363;-64
2023/12/06 05:37:03;;;;;;;0.63;0.50;;;17.60;43.60;;;;;;5107963;27;45133;-64
2023/12/06 05:39:31;;;;;;;0.45;0.40;;;17.60;43.60;;;;;;5111404;27;45341;-64
2023/12/06 05:41:57;;;;;;;0.68;0.40;;;17.60;43.50;;;;;;5128412;27;47964;-64
2023/12/06 05:44:24;;;;;;;1.13;0.60;;;17.60;43.50;;;;;;5128398;27;45315;-64
2023/12/06 05:46:51;;;;;;;0.90;0.85;;;17.70;43.40;;;;;;5119089;27;45102;-64
2023/12/06 05:49:18;;;;;;;0.57;0.40;;;17.70;43.40;;;;;;5107884;27;45179;-64
2023/12/06 05:51:46;;;;;;;0.25;0.25;;;17.70;43.30;;;;;;5107398;27;45355;-64
2023/12/06 05:54:13;;;;;;;0.30;0.30;;;17.80;43.30;;;;;;5107471;27;45307;-64
2023/12/06 05:56:40;;;;;;;0.75;0.45;;;17.80;43.20;;;;;;5107206;27;45260;-64
2023/12/06 05:59:06;;;;;;;1.35;0.60;;;17.90;43.20;;;;;;5107668;27;45240;-64
2023/12/06 06:01:33;;;;;;;0.40;0.40;;;17.80;43.20;;;;;;5107271;27;47299;-64
2023/12/06 06:04:00;;;;;;;1.17;0.63;;;17.90;43.20;;;;;;5107219;27;45378;-64
2023/12/06 06:06:28;;;;;;;1.15;0.50;;;17.90;43.10;;;;;;5107344;27;45322;-64
2023/12/06 06:08:56;;;;;;;0.50;0.50;;;17.90;43.00;;;;;;5107514;27;45459;-64
2023/12/06 06:11:23;;;;;;;0.50;0.50;;;18.00;43.00;;;;;;5107077;27;45374;-64
2023/12/06 06:13:49;;;;;;;1.38;0.60;;;18.00;43.00;;;;;;5107187;27;45129;-64
2023/12/06 06:16:17;;;;;;;0.47;0.40;;;18.00;42.90;;;;;;5107247;27;45409;-64
2023/12/06 06:18:44;;;;;;;0.63;0.45;;;18.00;42.90;;;;;;5106839;27;45357;-64
2023/12/06 06:21:11;;;;;;;0.55;0.50;;;18.10;42.90;;;;;;5106577;27;45276;-64
2023/12/06 06:23:37;;;;;;;1.02;0.40;;;18.10;42.90;;;;;;5107024;27;45180;-64
2023/12/06 06:26:06;;;;;;;0.80;0.77;;;18.10;42.80;;;;;;5107073;27;45229;-64
2023/12/06 06:28:33;;;;;;;0.52;0.50;;;18.10;42.70;;;;;;5107113;27;45335;-64
2023/12/06 06:30:59;;;;;;;0.75;0.40;;;18.10;42.70;;;;;;5106785;27;45362;-64
2023/12/06 06:33:26;;;;;;;0.82;0.40;;;18.20;42.70;;;;;;5106872;27;45305;-64
2023/12/06 06:35:53;;;;;;;0.45;0.45;;;18.20;42.70;;;;;;5106887;27;45335;-64
2023/12/06 06:38:20;;;;;;;0.60;0.60;;;18.20;42.70;;;;;;5107172;27;45444;-64
2023/12/06 06:40:46;;;;;;;0.40;0.40;;;18.20;42.70;;;;;;5120779;27;47357;-64
2023/12/06 06:43:13;;;;;;;0.38;0.35;;;18.20;42.60;;;;;;5127395;27;45393;-64
2023/12/06 06:45:42;;;;;;;0.47;0.30;;;18.20;42.60;;;;;;5127267;27;45329;-64
2023/12/06 06:48:09;;;;;;;1.00;0.50;;;18.20;42.60;;;;;;5107298;27;45195;-63
2023/12/06 06:50:36;;;;;;;0.40;0.40;;;18.30;42.60;;;;;;5106539;27;46388;-64
2023/12/06 06:53:03;;;;;;;1.33;0.73;;;18.30;42.50;;;;;;5106463;27;45381;-64
2023/12/06 06:55:30;;;;;;;0.57;0.57;;;18.30;42.50;;;;;;5106528;27;45391;-64
2023/12/06 06:57:58;;;;;;;0.30;0.30;;;18.40;42.50;;;;;;5106636;27;45260;-64
2023/12/06 07:00:26;;;;;;;0.90;0.55;;;18.40;42.50;;;;;;5106527;27;46430;-64
2023/12/06 07:02:53;;;;;;;0.30;0.30;;;18.40;42.40;;;;;;5106303;27;45342;-64
2023/12/06 07:05:20;;;;;;;1.20;0.50;;;18.40;42.30;;;;;;5106443;27;45333;-64
2023/12/06 07:07:47;;;;;;;0.60;0.40;;;18.50;42.30;;;;;;5106735;27;45247;-64
2023/12/06 07:10:14;;;;;;;0.63;0.32;;;18.50;42.30;;;;;;5106174;27;47831;-64
2023/12/06 07:12:41;;;;;;;0.60;0.60;;;18.50;42.20;;;;;;5106053;27;45424;-64
2023/12/06 07:15:14;;;;;;;1.00;0.50;;;18.50;42.20;;;;;;5106384;27;45438;-64
2023/12/06 07:17:43;;;;;;;0.50;0.47;;;18.50;42.20;;;;;;5106342;27;45380;-64
2023/12/06 07:20:11;;;;;;;0.45;0.45;;;18.50;42.20;;;;;;5106126;27;45303;-64
2023/12/06 07:22:38;;;;;;;0.57;0.57;;;18.50;42.80;;;;;;5106236;27;45263;-64
2023/12/06 07:25:05;;;;;;;0.93;0.47;;;18.50;42.10;;;;;;5106184;27;45325;-64
2023/12/06 07:27:32;;;;;;;0.57;0.40;;;18.60;42.20;;;;;;5106332;27;45372;-64
2023/12/06 07:29:59;;;;;;;0.50;0.50;;;18.60;42.20;;;;;;5105995;27;45299;-67
2023/12/06 07:32:26;;;;;;;0.77;0.68;;;18.60;42.10;;;;;;5109484;27;45335;-63
2023/12/06 07:34:54;;;;;;;0.88;0.68;;;18.60;42.10;;;;;;5109757;27;45356;-63
2023/12/06 07:37:21;;;;;;;0.82;0.82;;;18.60;42.10;;;;;;5109908;27;45346;-63
2023/12/06 07:39:47;;;;;;;1.08;0.73;;;18.60;42.00;;;;;;5115394;27;46554;-63
2023/12/06 07:42:14;;;;;;;0.50;0.50;;;18.70;42.00;;;;;;5130073;27;45399;-63
2023/12/06 07:44:41;;;;;;;0.50;0.50;;;18.70;42.00;;;;;;5130335;27;45251;-63
2023/12/06 07:47:08;;;;;;;0.63;0.63;;;18.70;41.90;;;;;;5118793;27;45390;-63
2023/12/06 07:49:35;;;;;;;1.38;0.65;;;18.70;41.90;;;;;;5109389;27;45449;-63
2023/12/06 07:52:04;;;;;;;0.80;0.70;;;18.70;41.90;;;;;;5109263;27;45311;-63
2023/12/06 07:54:31;;;;;;;0.77;0.60;;;18.70;41.90;;;;;;5122830;27;45343;-65
2023/12/06 07:56:58;;;;;;;0.70;0.70;;;18.70;41.90;;;;;;5128713;27;45439;-63
2023/12/06 07:59:25;;;;;;;0.60;0.50;;;18.70;41.90;;;;;;5118105;27;45365;-63
2023/12/06 08:01:54;;;;;;;0.95;0.60;;;18.70;42.00;;;;;;5129658;27;45302;-62
2023/12/06 08:04:21;;;;;;;1.83;0.85;;;18.70;42.10;;;;;;5109144;27;45333;-63
2023/12/06 08:06:47;;;;;;;1.15;0.60;;;18.80;42.10;;;;;;5109270;27;45417;-64
2023/12/06 08:09:17;;;;;;;1.70;0.55;;;18.80;42.00;;;;;;5119087;27;45309;-63
2023/12/06 08:11:44;;;;;;;0.65;0.55;;;18.80;41.90;;;;;;5129623;27;45277;-64
2023/12/06 08:14:11;;;;;;;0.90;0.57;;;18.80;41.80;;;;;;5129154;27;45330;-63
2023/12/06 08:16:38;;;;;;;2.30;0.50;;;18.90;41.90;;;;;;5129728;27;45310;-64
2023/12/06 08:19:04;;;;;;;1.83;0.60;;;18.90;41.80;;;;;;5124734;27;46332;-63
2023/12/06 08:21:31;;;;;;;0.65;0.65;;;18.90;41.70;;;;;;5111375;27;45228;-63
2023/12/06 08:23:58;;;;;;;0.65;0.60;;;18.90;42.40;;;;;;5108767;27;45381;-63
2023/12/06 08:26:28;;;;;;;1.38;0.90;;;18.90;41.70;;;;;;5116585;27;45432;-62
2023/12/06 08:28:54;;;;;;;0.50;0.47;;;19.00;41.70;;;;;;5128664;27;45658;-63
2023/12/06 08:31:21;;;;;;;0.60;0.60;;;19.00;41.60;;;;;;5129015;27;45408;-62
2023/12/06 08:33:48;;;;;;;0.65;0.65;;;19.00;41.60;;;;;;5128292;27;45353;-63
2023/12/06 08:36:15;;;;;;;1.45;0.70;;;19.00;41.60;;;;;;5128879;27;45439;-62
2023/12/06 08:38:43;;;;;;;0.50;0.50;;;19.00;41.60;;;;;;5128302;27;47298;-62
2023/12/06 08:41:10;;;;;;;0.47;0.47;;;19.00;41.60;;;;;;5111439;27;45325;-64
2023/12/06 08:43:39;;;;;;;0.63;0.50;;;19.00;41.70;;;;;;5126724;27;45368;-63
2023/12/06 08:46:07;;;;;;;0.50;0.50;;;19.00;41.80;;;;;;5126254;27;45467;-63
2023/12/06 08:48:34;;;;;;;3.15;0.73;;;19.00;41.80;;;;;;5112750;27;46396;-63
2023/12/06 08:51:01;;;;;;;1.58;0.65;;;19.00;41.70;;;;;;5128551;27;45556;-63
2023/12/06 08:53:28;;;;;;;1.02;0.70;;;19.10;41.80;;;;;;5128927;27;45484;-63
2023/12/06 08:55:56;;;;;;;0.57;0.57;;;19.00;41.80;;;;;;5128838;27;45243;-63
2023/12/06 08:58:23;;;;;;;0.57;0.57;;;19.10;41.80;;;;;;5127425;27;45750;-64
2023/12/06 09:00:51;;;;;;;0.68;0.57;;;19.10;41.70;;;;;;5127931;27;45436;-65
2023/12/06 09:03:18;;;;;;;0.77;0.70;;;19.10;41.70;;;;;;5128210;27;45599;-62
2023/12/06 09:05:45;;;;;;;0.70;0.70;;;19.10;41.70;;;;;;5128821;27;45320;-64
2023/12/06 09:08:12;;;;;;;0.50;0.50;;;19.10;41.70;;;;;;5128253;27;45727;-63
2023/12/06 09:10:39;;;;;;;0.50;0.50;;;19.10;41.60;;;;;;5128148;27;45256;-63
2023/12/06 09:13:06;;;;;;;0.60;0.60;;;19.10;41.60;;;;;;5127833;27;45454;-63
2023/12/06 09:15:33;;;;;;;0.52;0.43;;;19.10;41.70;;;;;;5127601;27;45509;-63
2023/12/06 09:18:01;;;;;;;0.60;0.50;;;19.10;41.70;;;;;;5128324;27;46648;-63
2023/12/06 09:20:28;;;;;;;2.90;0.80;;;19.20;41.60;;;;;;5124254;27;45367;-63
2023/12/06 09:22:54;;;;;;;3.13;0.80;;;19.20;41.60;;;;;;5128433;27;45278;-63
2023/12/06 09:25:22;;;;;;;0.60;0.60;;;19.20;41.60;;;;;;5127787;27;45322;-64
2023/12/06 09:27:50;;;;;;;0.75;0.70;;;19.20;41.50;;;;;;5127834;27;46415;-63
2023/12/06 09:30:17;;;;;;;0.52;0.52;;;19.20;41.50;;;;;;5127698;27;45452;-63
2023/12/06 09:32:45;;;;;;;1.35;0.60;;;19.30;41.50;;;;;;5127435;27;45258;-63
2023/12/06 09:35:13;;;;;;;0.60;0.50;;;19.30;41.50;;;;;;5127431;27;45611;-63
2023/12/06 09:37:40;;;;;;;1.02;0.60;;;19.30;41.40;;;;;;5126981;27;46175;-65
2023/12/06 09:40:08;;;;;;;1.58;0.60;;;19.30;41.50;;;;;;5125662;27;45246;-63
2023/12/06 09:42:36;;;;;;;3.30;0.52;;;19.30;41.40;;;;;;5113454;27;45346;-63
2023/12/06 09:45:03;;;;;;;0.75;0.65;;;19.30;41.40;;;;;;5120255;27;45335;-64
2023/12/06 09:47:30;;;;;;;0.60;0.60;;;19.30;41.30;;;;;;5121825;27;45328;-63
2023/12/06 09:49:57;;;;;;;2.47;0.50;;;19.30;41.30;;;;;;5128353;27;45346;-64
2023/12/06 09:52:25;;;;;;;0.60;0.60;;;19.30;41.30;;;;;;5128058;27;45291;-62
2023/12/06 09:54:52;;;;;;;0.50;0.50;;;19.40;41.30;;;;;;5128257;27;45393;-64
2023/12/06 09:57:19;;;;;;;1.08;0.57;;;19.30;41.40;;;;;;5118487;27;45585;-63
2023/12/06 09:59:46;;;;;;;1.73;0.80;;;19.30;41.40;;;;;;5107345;27;45464;-63
2023/12/06 10:02:13;;;;;;;1.02;0.70;;;19.30;41.50;;;;;;5107247;27;45332;-64
2023/12/06 10:04:38;;;;;;;1.58;0.68;;;19.30;41.60;;;;;;5107457;27;45378;-64
2023/12/06 10:07:05;;;;;;;1.15;0.80;;;19.30;41.60;;;;;;5117342;27;46474;-64
2023/12/06 10:09:33;;;;;;;0.40;0.40;;;19.40;41.60;;;;;;5126645;27;45459;-63
2023/12/06 10:12:09;;;;;;;1.48;0.85;;;19.40;41.50;;;;;;5121237;27;45483;-64
2023/12/06 10:14:36;;;;;;;0.98;0.57;;;19.40;41.40;;;;;;5123939;27;45430;-64
2023/12/06 10:17:03;;;;;;;2.85;0.70;;;19.50;41.40;;;;;;5123084;27;46414;-64
2023/12/06 10:19:31;;;;;;;1.48;0.70;;;19.50;41.40;;;;;;5106834;27;45348;-63
2023/12/06 10:21:58;;;;;;;0.80;0.70;;;19.50;41.40;;;;;;5106897;27;45403;-64
2023/12/06 10:24:25;;;;;;;0.60;0.60;;;19.50;41.40;;;;;;5106806;27;45389;-64
2023/12/06 10:27:03;;;;;;;1.80;0.65;;;19.50;41.40;;;;;;5106798;27;45283;-64
2023/12/06 10:29:32;;;;;;;1.88;0.60;;;19.50;41.30;;;;;;5112965;27;45347;-64
2023/12/06 10:31:59;;;;;;;0.55;0.55;;;19.60;41.40;;;;;;5126983;27;45411;-64
2023/12/06 10:34:26;;;;;;;0.70;0.70;;;19.60;41.30;;;;;;5127444;27;45384;-64
2023/12/06 10:36:53;;;;;;;0.75;0.60;;;19.50;41.30;;;;;;5127033;27;45291;-64
2023/12/06 10:39:20;;;;;;;0.63;0.63;;;19.60;41.40;;;;;;5127133;27;45313;-64
2023/12/06 10:41:48;;;;;;;1.60;0.70;;;19.60;41.30;;;;;;5124610;27;45279;-64
2023/12/06 10:44:16;;;;;;;1.48;0.63;;;19.60;41.30;;;;;;5127237;27;45453;-63
2023/12/06 10:46:43;;;;;;;2.33;0.82;;;19.60;41.20;;;;;;5118727;27;47231;-64
2023/12/06 10:49:10;;;;;;;1.02;0.52;;;19.60;41.20;;;;;;5106423;27;45247;-64
2023/12/06 10:51:37;;;;;;;2.13;0.70;;;19.60;41.20;;;;;;5106271;27;45325;-64
2023/12/06 10:54:04;;;;;;;1.88;0.90;;;19.60;41.20;;;;;;5106229;27;45416;-63
2023/12/06 10:56:30;;;;;;;0.47;0.47;;;19.60;41.20;;;;;;5105974;27;47802;-64
2023/12/06 10:58:57;;;;;;;2.45;0.70;;;19.70;41.20;;;;;;5106199;27;45324;-64
2023/12/06 11:01:25;;;;;;;1.45;0.50;;;19.70;41.20;;;;;;5106310;27;45330;-64
2023/12/06 11:03:52;;;;;;;0.70;0.70;;;19.70;41.20;;;;;;5106393;27;45558;-64
2023/12/06 11:06:23;;;;;;;1.83;0.70;;;19.70;41.20;;;;;;5105557;27;46349;-64
2023/12/06 11:08:57;;;;;;;1.60;0.60;;;19.70;41.20;;;;;;5106313;27;45271;-64
2023/12/06 11:11:31;;;;;;;2.88;0.43;;;19.70;41.20;;;;;;5106421;27;45302;-64
2023/12/06 11:14:04;;;;;;;0.75;0.52;;;19.70;41.10;;;;;;5105820;27;45364;-64
2023/12/06 11:16:43;;;;;;;1.05;0.60;;;19.70;41.10;;;;;;5105997;27;45554;-67
2023/12/06 11:19:12;;;;;;;0.40;0.40;;;19.80;41.10;;;;;;5106353;27;45330;-64
2023/12/06 11:21:39;;;;;;;0.80;0.50;;;19.80;41.10;;;;;;5121145;27;45381;-64
2023/12/06 11:24:08;;;;;;;2.28;0.75;;;19.80;41.10;;;;;;5126018;27;45610;-66
2023/12/06 11:26:35;;;;;;;4.28;0.77;;;19.80;41.10;;;;;;5112624;27;45380;-66
2023/12/06 11:29:03;;;;;;;2.25;0.65;;;19.80;41.20;;;;;;5126008;27;45331;-63
2023/12/06 11:31:33;;;;;;;1.65;0.50;;;19.80;41.10;;;;;;5125992;27;45547;-64
2023/12/06 11:34:03;;;;;;;2.38;1.05;;;19.80;41.10;;;;;;5115500;27;45407;-65
2023/12/06 11:36:30;;;;;;;1.73;0.80;;;19.80;40.80;;;;;;5110060;27;47622;-66
2023/12/06 11:38:57;;;;;;;2.13;0.70;;;19.70;41.20;;;;;;5117043;27;45513;-64
2023/12/06 11:41:24;;;;;;;0.70;0.70;;;19.70;41.20;;;;;;5117539;27;45410;-64
2023/12/06 11:43:52;;;;;;;1.30;0.88;;;19.70;41.50;;;;;;5111019;27;46040;-64
2023/12/06 11:46:19;;;;;;;2.25;0.70;;;19.70;41.50;;;;;;5120320;27;46790;-63
2023/12/06 11:48:47;;;;;;;1.50;0.70;;;19.70;41.40;;;;;;5113922;27;45483;-64
2023/12/06 11:51:23;;;;;;;3.03;0.80;;;19.70;41.60;;;;;;5119655;27;45184;-63
2023/12/06 11:53:51;;;;;;;3.20;1.33;;;19.70;41.80;;;;;;5106708;27;45363;-61
2023/12/06 11:56:22;;;;;;;9.18;0.82;;;19.70;41.80;;;;;;5116663;27;46661;-63
2023/12/06 11:58:49;;;;;;;5.60;0.82;;;19.70;41.80;;;;;;5106399;27;45390;-62
2023/12/06 12:01:16;;;;;;;0.55;0.55;;;19.80;41.90;;;;;;5113502;27;45328;-63
2023/12/06 12:03:44;;;;;;;3.22;1.08;;;19.80;41.90;;;;;;5120548;27;45581;-63
2023/12/06 12:06:11;;;;;;;0.70;0.70;;;19.80;42.50;;;;;;5109532;27;46662;-63
2023/12/06 12:08:39;;;;;;;3.13;1.00;;;19.90;41.90;;;;;;5106587;27;45302;-63
2023/12/06 12:11:07;;;;;;;2.50;0.88;;;19.90;41.90;;;;;;5106801;27;45322;-64
2023/12/06 12:13:37;;;;;;;1.20;0.75;;;19.90;41.90;;;;;;5105316;27;45332;-64
2023/12/06 12:16:04;;;;;;;1.45;1.35;;;19.90;41.90;;;;;;5117041;27;46368;-63
2023/12/06 12:18:31;;;;;;;3.72;0.70;;;20.00;41.90;;;;;;5123914;27;45373;-63
2023/12/06 12:20:58;;;;;;;1.48;0.80;;;20.00;41.90;;;;;;5122041;27;45527;-62
2023/12/06 12:23:25;;;;;;;1.27;0.95;;;20.00;41.80;;;;;;5112976;27;45500;-64
2023/12/06 12:25:53;;;;;;;5.63;1.02;;;20.00;41.90;;;;;;5123753;27;45503;-62
2023/12/06 12:28:21;;;;;;;2.30;0.73;;;20.00;42.00;;;;;;5128228;27;45330;-63
2023/12/06 12:30:49;;;;;;;2.20;1.10;;;20.00;42.00;;;;;;5129138;27;45370;-63
2023/12/06 12:33:16;;;;;;;3.08;1.00;;;20.00;42.10;;;;;;5126505;27;45457;-63
2023/12/06 12:35:43;;;;;;;1.35;0.82;;;20.00;42.10;;;;;;5108514;27;46692;-64
2023/12/06 12:38:10;;;;;;;5.80;0.75;;;20.00;42.10;;;;;;5125558;27;45448;-64
2023/12/06 12:40:37;;;;;;;2.97;0.70;;;20.00;42.10;;;;;;5120773;27;45442;-64
2023/12/06 12:43:05;;;;;;;1.63;0.80;;;20.00;42.00;;;;;;5129307;27;45506;-63
2023/12/06 12:45:32;;;;;;;2.33;0.90;;;20.10;42.00;;;;;;5128270;27;45400;-64
2023/12/06 12:47:59;;;;;;;5.25;0.90;;;20.10;42.00;;;;;;5122379;27;45456;-63